M I D A S
Marine Information and Data Acquisition System
Tripno 1412 of the Zeeleeuw from 2007-11-12 09:07:35 to 2007-11-13 15:51:56
Back to CruiseResearch ActivitiesStationsMapUnderway DataData graphs

EquipmentUnitsComment
TimeDGPSUTC
LatitudeDGPSDM.mWGS84
LongitudeDGPSDM.mWGS84
HeadingGyrodeg 
SOGDGPSknotsSpeed over ground
COGDGPSdegCourse over ground
DepthEcho soundermeters200 kHz
Missing or incorrect values are displayed as -999
Navigation data collected by the RV Zeeleeuw from 2007-11-12 09:06:30 to 2007-11-13 16:02:17
                                                                                    Next 1000 lines
Time Latitude Longitude Heading SOG COG Depth
2007-11-12 09:06:40 51°14.6 2°53.547 310.9 5.3 292 8.6
2007-11-12 09:06:45 51°14.603 2°53.536 311.7 5.4 296 8.8
2007-11-12 09:06:49 51°14.605 2°53.527 312.6 5.5 295 8.6
2007-11-12 09:06:55 51°14.609 2°53.514 313.4 5.3 298 8.6
2007-11-12 09:07:00 51°14.612 2°53.503 314.6 5.5 295 8.7
2007-11-12 09:07:05 51°14.616 2°53.493 315.3 5.4 298 8.5
2007-11-12 09:07:09 51°14.618 2°53.485 315.5 5.2 297 8.4
2007-11-12 09:07:15 51°14.622 2°53.473 315.4 5.2 297 8.6
2007-11-12 09:07:20 51°14.626 2°53.463 316.2 5.3 298 8.6
2007-11-12 09:07:25 51°14.63 2°53.453 316.4 5.4 301 8.7
2007-11-12 09:07:29 51°14.632 2°53.445 316.9 5.3 301 8.7
2007-11-12 09:07:35 51°14.637 2°53.433 317.6 5.3 301 8.8
2007-11-12 09:07:40 51°14.641 2°53.422 317.9 5.3 300 8.8
2007-11-12 09:07:45 51°14.644 2°53.412 317.9 5 296 8.9
2007-11-12 09:07:49 51°14.646 2°53.404 317.3 4.6 292 9.1
2007-11-12 09:07:54 51°14.648 2°53.394 315.4 4.8 289 8.8
2007-11-12 09:08:00 51°14.651 2°53.382 313.6 5 292 8.5
2007-11-12 09:08:05 51°14.654 2°53.372 312.4 5 290 8.4
2007-11-12 09:08:09 51°14.656 2°53.364 312.6 5.1 293 8.7
2007-11-12 09:08:15 51°14.659 2°53.351 312.4 5 292 8.9
2007-11-12 09:08:20 51°14.661 2°53.34 313.2 5.1 293 9.1
2007-11-12 09:08:25 51°14.663 2°53.329 314.5 5.2 293 9.2
2007-11-12 09:08:29 51°14.666 2°53.321 314.4 5.2 296 9.2
2007-11-12 09:08:35 51°14.67 2°53.308 315.4 5.3 297 9.2
2007-11-12 09:08:40 51°14.673 2°53.298 316.4 5.3 298 9.2
2007-11-12 09:08:44 51°14.676 2°53.29 317.6 5.3 299 9.3
2007-11-12 09:08:50 51°14.681 2°53.277 318.8 5.4 301 9.2
2007-11-12 09:08:55 51°14.685 2°53.268 319.9 5.4 303 9.2
2007-11-12 09:09:00 51°14.689 2°53.258 320.8 5.3 304 9.3
2007-11-12 09:09:05 51°14.693 2°53.248 322.2 5.3 304 9.4
2007-11-12 09:09:09 51°14.697 2°53.24 322.8 5.1 302 9.2
2007-11-12 09:09:15 51°14.701 2°53.23 323.3 4.9 303 9.3
2007-11-12 09:09:20 51°14.706 2°53.221 323.2 5 305 9.2
2007-11-12 09:09:25 51°14.71 2°53.212 323.6 5.1 304 9.1
2007-11-12 09:09:29 51°14.713 2°53.205 324.1 5 307 9.2
2007-11-12 09:09:34 51°14.717 2°53.196 324.3 5.1 306 9.4
2007-11-12 09:09:40 51°14.723 2°53.185 324.9 5.2 309 9.3
2007-11-12 09:09:45 51°14.727 2°53.175 325.2 5.3 309 9.3
2007-11-12 09:09:49 51°14.73 2°53.168 325.8 5.2 306 9.2
2007-11-12 09:09:55 51°14.735 2°53.157 325.8 5 304 9.1
2007-11-12 09:10:00 51°14.739 2°53.148 324.8 4.9 304 9.2
2007-11-12 09:10:05 51°14.743 2°53.139 323.8 5 305 9.3
2007-11-12 09:10:09 51°14.746 2°53.132 323.4 5.2 305 9.2
2007-11-12 09:10:14 51°14.75 2°53.122 323.4 5.3 303 9.2
2007-11-12 09:10:20 51°14.754 2°53.111 322.9 5.1 302 9.3
2007-11-12 09:10:25 51°14.758 2°53.102 322.2 5 302 9.3
2007-11-12 09:10:29 51°14.761 2°53.094 321.6 5.1 301 9.4
2007-11-12 09:10:35 51°14.765 2°53.082 321.7 5.2 301 9.6
2007-11-12 09:10:40 51°14.769 2°53.072 321.5 5.2 296 9.5
2007-11-12 09:10:45 51°14.772 2°53.063 320.7 4.9 298 9.5
2007-11-12 09:10:49 51°14.774 2°53.055 319.7 5.1 296 9.6
2007-11-12 09:10:55 51°14.778 2°53.043 319.6 5.2 297 9.5
2007-11-12 09:11:00 51°14.781 2°53.033 320 5.1 297 9.6
2007-11-12 09:11:05 51°14.785 2°53.024 319.6 4.9 300 9.7
2007-11-12 09:11:09 51°14.788 2°53.016 320.7 5 299 9.7
2007-11-12 09:11:15 51°14.792 2°53.004 322.1 4.9 299 9.7
2007-11-12 09:11:20 51°14.795 2°52.995 322.3 4.9 299 9.7
2007-11-12 09:11:25 51°14.799 2°52.985 322.4 4.9 301 9.7
2007-11-12 09:11:30 51°14.802 2°52.976 322.3 5 302 9.6
2007-11-12 09:11:35 51°14.806 2°52.966 322.9 5 302 9.5
2007-11-12 09:11:40 51°14.81 2°52.957 323.4 5 302 9.5
2007-11-12 09:11:45 51°14.813 2°52.948 323 4.9 302 9.8
2007-11-12 09:11:49 51°14.816 2°52.94 323.5 4.9 300 9.9
2007-11-12 09:11:55 51°14.82 2°52.929 323.2 4.8 303 9.9
2007-11-12 09:12:00 51°14.824 2°52.92 322.6 4.9 300 10
2007-11-12 09:12:05 51°14.828 2°52.91 322.5 5 302 10.1
2007-11-12 09:12:09 51°14.831 2°52.902 322.1 5.1 303 10.1
2007-11-12 09:12:14 51°14.835 2°52.893 322.2 5.1 301 10.1
2007-11-12 09:12:20 51°14.839 2°52.881 322.2 5.2 302 10.1
2007-11-12 09:12:25 51°14.843 2°52.872 321.5 5.1 303 10.1
2007-11-12 09:12:29 51°14.846 2°52.864 321.7 5.1 302 10.2
2007-11-12 09:12:35 51°14.851 2°52.853 321.8 5.1 304 10.2
2007-11-12 09:12:40 51°14.855 2°52.843 322.1 5.2 305 10
2007-11-12 09:12:45 51°14.859 2°52.833 322.2 5.4 304 9.9
2007-11-12 09:12:49 51°14.863 2°52.825 322 5.3 304 9.9
2007-11-12 09:12:55 51°14.868 2°52.813 322.2 5.4 302 10.1
2007-11-12 09:13:00 51°14.872 2°52.803 321.6 5.3 304 10.1
2007-11-12 09:13:04 51°14.875 2°52.795 321.3 5.4 301 10.1
2007-11-12 09:13:09 51°14.878 2°52.786 320.8 5.4 299 9.8
2007-11-12 09:13:15 51°14.883 2°52.774 320 5.2 299 9.9
2007-11-12 09:13:20 51°14.886 2°52.764 319.1 5 299 9.7
2007-11-12 09:13:25 51°14.889 2°52.755 319.1 4.9 298 9.8
2007-11-12 09:13:30 51°14.893 2°52.746 319.3 5 304 10
2007-11-12 09:13:35 51°14.897 2°52.736 320.8 5.2 301 9.9
2007-11-12 09:13:40 51°14.901 2°52.727 321.2 5.1 303 10
2007-11-12 09:13:45 51°14.904 2°52.717 321.3 5 302 10.3
2007-11-12 09:13:49 51°14.907 2°52.71 321.2 4.8 300 10.5
2007-11-12 09:13:55 51°14.911 2°52.698 321.4 4.7 298 10.5
2007-11-12 09:14:00 51°14.914 2°52.688 320 4.8 301 10.3
2007-11-12 09:14:05 51°14.917 2°52.679 319.3 4.9 298 10.2
2007-11-12 09:14:09 51°14.92 2°52.672 319.8 5 297 10.3
2007-11-12 09:14:15 51°14.924 2°52.66 319.2 4.9 300 10.2
2007-11-12 09:14:20 51°14.927 2°52.65 318.7 5.2 297 10.3
2007-11-12 09:14:25 51°14.931 2°52.641 318.7 5.2 301 10.4
2007-11-12 09:14:29 51°14.933 2°52.633 318.8 5.1 299 10.3
2007-11-12 09:14:34 51°14.937 2°52.624 319.2 4.9 302 10.6
2007-11-12 09:14:40 51°14.941 2°52.613 320.1 4.7 300 10.8
2007-11-12 09:14:45 51°14.945 2°52.604 321.1 4.6 302 10.6
2007-11-12 09:14:49 51°14.948 2°52.597 321.3 4.7 301 10.3
2007-11-12 09:14:54 51°14.951 2°52.588 321.5 4.7 304 10.3
2007-11-12 09:15:00 51°14.956 2°52.577 321.9 4.8 304 10.4
2007-11-12 09:15:05 51°14.96 2°52.568 321.8 5 305 10.5
2007-11-12 09:15:09 51°14.963 2°52.561 321.7 5.2 301 10.8
2007-11-12 09:15:15 51°14.967 2°52.549 321.2 5.1 302 10.8
2007-11-12 09:15:20 51°14.97 2°52.539 320.3 5.1 300 10.7
2007-11-12 09:15:25 51°14.974 2°52.529 319.5 5.3 300 10.7
2007-11-12 09:15:29 51°14.976 2°52.521 319 5.5 297 10.5
2007-11-12 09:15:35 51°14.981 2°52.509 318.7 5.1 301 10.4
2007-11-12 09:15:40 51°14.984 2°52.499 318.2 5.2 296 10.6
2007-11-12 09:15:45 51°14.987 2°52.489 318.5 5 298 10.4
2007-11-12 09:15:49 51°14.989 2°52.481 318.7 4.9 294 10.6
2007-11-12 09:15:55 51°14.993 2°52.47 317.9 4.8 297 10.6
2007-11-12 09:16:00 51°14.995 2°52.46 318 5.1 294 10.8
2007-11-12 09:16:05 51°14.998 2°52.45 318.9 5.1 293 10.4
2007-11-12 09:16:09 51°15 2°52.443 318.3 4.8 295 10.3
2007-11-12 09:16:15 51°15.004 2°52.431 317.7 4.9 295 10.4
2007-11-12 09:16:20 51°15.007 2°52.421 318.6 4.9 297 10.6
2007-11-12 09:16:25 51°15.01 2°52.411 319.3 5 296 10.7
2007-11-12 09:16:29 51°15.012 2°52.403 319.7 5.1 297 10.8
2007-11-12 09:16:35 51°15.016 2°52.39 320 5.3 296 10.9
2007-11-12 09:16:40 51°15.019 2°52.38 320.2 5.3 293 10.6
2007-11-12 09:16:45 51°15.021 2°52.37 319.8 5 294 10.5
2007-11-12 09:16:49 51°15.023 2°52.362 318.1 4.9 294 10.6
2007-11-12 09:16:55 51°15.027 2°52.35 318.9 5.1 293 10.3
2007-11-12 09:17:00 51°15.029 2°52.34 319.6 5 291 10.4
2007-11-12 09:17:04 51°15.031 2°52.332 318.7 5.1 291 10.6
2007-11-12 09:17:09 51°15.034 2°52.322 318.4 5.1 291 10.6
2007-11-12 09:17:15 51°15.037 2°52.309 318.3 5.1 295 11
2007-11-12 09:17:20 51°15.04 2°52.298 318.1 5.3 292 11
2007-11-12 09:17:25 51°15.043 2°52.288 318.9 5.2 293 11
2007-11-12 09:17:29 51°15.045 2°52.279 319 5.3 294 11.1
2007-11-12 09:17:35 51°15.048 2°52.266 318.9 5.5 292 11
2007-11-12 09:17:40 51°15.051 2°52.255 319.5 5.5 293 11.1
2007-11-12 09:17:45 51°15.054 2°52.244 318.6 5.5 293 10.9
2007-11-12 09:17:50 51°15.057 2°52.233 318.6 5.4 295 10.8
2007-11-12 09:17:55 51°15.06 2°52.222 318.9 5.4 292 10.7
2007-11-12 09:18:00 51°15.063 2°52.212 319.5 5.3 291 10.7
2007-11-12 09:18:05 51°15.065 2°52.201 319.2 5.3 291 10.8
2007-11-12 09:18:10 51°15.068 2°52.19 319.2 5.3 294 10.7
2007-11-12 09:18:15 51°15.07 2°52.178 319.5 5.4 289 10.7
2007-11-12 09:18:20 51°15.073 2°52.168 319.6 5.3 290 10.9
2007-11-12 09:18:25 51°15.076 2°52.157 319.2 5.3 293 10.9
2007-11-12 09:18:30 51°15.078 2°52.146 318.8 5.4 291 10.8
2007-11-12 09:18:35 51°15.081 2°52.136 320.4 5.3 292 10.9
2007-11-12 09:18:40 51°15.084 2°52.125 320 5.1 294 11.1
2007-11-12 09:18:45 51°15.087 2°52.114 320.8 5.2 293 11.1
2007-11-12 09:18:49 51°15.089 2°52.106 321.5 5.3 296 11
2007-11-12 09:18:55 51°15.093 2°52.093 321.7 5.4 296 11
2007-11-12 09:19:00 51°15.096 2°52.083 322.2 5.4 296 11
2007-11-12 09:19:05 51°15.1 2°52.073 322.4 5.1 298 11
2007-11-12 09:19:09 51°15.102 2°52.064 322.4 5.1 295 11.3
2007-11-12 09:19:14 51°15.105 2°52.055 323.5 5.1 296 11.2
2007-11-12 09:19:20 51°15.109 2°52.043 322.9 5 298 11.2
2007-11-12 09:19:25 51°15.112 2°52.033 323 5 298 11.2
2007-11-12 09:19:29 51°15.114 2°52.026 322.9 5.1 298 11.3
2007-11-12 09:19:35 51°15.118 2°52.013 322.8 5.2 298 11.4
2007-11-12 09:19:40 51°15.122 2°52.003 322.9 5.2 296 11.4
2007-11-12 09:19:45 51°15.125 2°51.994 322.6 5.1 299 11.4
2007-11-12 09:19:49 51°15.128 2°51.985 322.2 5.1 300 11.5
2007-11-12 09:19:55 51°15.132 2°51.973 322.5 5.3 298 11.4
2007-11-12 09:20:00 51°15.136 2°51.963 323 5.3 299 11.6
2007-11-12 09:20:05 51°15.139 2°51.953 322.4 5.3 297 11.8
2007-11-12 09:20:09 51°15.143 2°51.945 322.5 5.3 300 11.5
2007-11-12 09:20:15 51°15.147 2°51.932 321.5 5.3 300 11.6
2007-11-12 09:20:20 51°15.15 2°51.922 321.9 5.4 301 11.7
2007-11-12 09:20:25 51°15.154 2°51.912 322 5.4 300 11.8
2007-11-12 09:20:30 51°15.158 2°51.901 321.9 5.5 301 11.9
2007-11-12 09:20:35 51°15.162 2°51.89 322.2 5.6 301 11.9
2007-11-12 09:20:40 51°15.166 2°51.88 322.2 5.5 301 11.6
2007-11-12 09:20:45 51°15.17 2°51.87 322 5.5 299 11.7
2007-11-12 09:20:49 51°15.173 2°51.862 321.7 5.6 299 11.6
2007-11-12 09:20:55 51°15.177 2°51.849 321 5.5 301 11.6
2007-11-12 09:21:00 51°15.181 2°51.839 320.5 5.5 300 11.6
2007-11-12 09:21:05 51°15.185 2°51.828 320.8 5.4 299 11.7
2007-11-12 09:21:09 51°15.188 2°51.82 320.8 5.4 300 11.8
2007-11-12 09:21:15 51°15.192 2°51.808 320.1 5.3 300 11.8
2007-11-12 09:21:20 51°15.196 2°51.797 320 5.5 299 12
2007-11-12 09:21:25 51°15.199 2°51.786 320.2 5.6 299 12
2007-11-12 09:21:29 51°15.202 2°51.779 320 5.5 296 12
2007-11-12 09:21:35 51°15.206 2°51.766 319.4 5.4 297 12.1
2007-11-12 09:21:40 51°15.21 2°51.756 318.7 5.3 301 12
2007-11-12 09:21:45 51°15.213 2°51.744 319.2 5.4 295 11.8
2007-11-12 09:21:49 51°15.216 2°51.736 320 5.1 296 11.8
2007-11-12 09:21:55 51°15.219 2°51.724 319.3 5.2 294 11.8
2007-11-12 09:22:00 51°15.223 2°51.714 318.6 5.2 297 11.8
2007-11-12 09:22:05 51°15.226 2°51.703 318.6 5.4 295 12.1
2007-11-12 09:22:10 51°15.229 2°51.693 318.6 5.2 296 12.3
2007-11-12 09:22:15 51°15.233 2°51.682 318.6 5.4 297 12.4
2007-11-12 09:22:20 51°15.236 2°51.672 318.6 5.3 298 12.4
2007-11-12 09:22:25 51°15.24 2°51.661 319.2 5.4 300 12.4
2007-11-12 09:22:30 51°15.243 2°51.651 319.6 5.5 297 12.3
2007-11-12 09:22:35 51°15.247 2°51.641 320 5.4 299 12.3
2007-11-12 09:22:40 51°15.25 2°51.631 319.9 5.3 296 12.2
2007-11-12 09:22:45 51°15.253 2°51.621 319.1 4.9 300 12.1
2007-11-12 09:22:49 51°15.256 2°51.613 319.3 4.8 296 12
2007-11-12 09:22:55 51°15.259 2°51.601 320.5 4.9 295 11.7
2007-11-12 09:23:00 51°15.262 2°51.591 319.4 4.9 297 11.8
2007-11-12 09:23:05 51°15.265 2°51.581 319.9 5 296 12.1
2007-11-12 09:23:09 51°15.268 2°51.573 320 5 297 12.5
2007-11-12 09:23:15 51°15.272 2°51.561 319.8 5.2 297 12.6
2007-11-12 09:23:20 51°15.275 2°51.551 319.8 5.3 297 12.5
2007-11-12 09:23:25 51°15.278 2°51.541 320.2 5.2 297 12.7
2007-11-12 09:23:29 51°15.281 2°51.532 320 5.3 299 12.6
2007-11-12 09:23:34 51°15.285 2°51.522 319.9 5.4 297 12.4
2007-11-12 09:23:40 51°15.289 2°51.509 320.4 5.5 298 12.4
2007-11-12 09:23:45 51°15.292 2°51.498 319.3 5.6 295 12.4
2007-11-12 09:23:49 51°15.295 2°51.49 317.6 5.4 297 12.5
2007-11-12 09:23:55 51°15.298 2°51.477 315.8 5.5 292 12.4
2007-11-12 09:24:00 51°15.302 2°51.466 314.7 5.4 293 12.4
2007-11-12 09:24:05 51°15.304 2°51.454 313.2 5.4 289 12.5
2007-11-12 09:24:09 51°15.306 2°51.444 311.9 5.6 287 12.7
2007-11-12 09:24:15 51°15.308 2°51.43 310.4 5.7 287 12.3
2007-11-12 09:24:20 51°15.31 2°51.418 308.7 5.8 285 12.3
2007-11-12 09:24:25 51°15.312 2°51.406 307.9 5.7 286 12.3
2007-11-12 09:24:29 51°15.314 2°51.397 307 5.6 286 12.1
2007-11-12 09:24:35 51°15.317 2°51.383 306.9 5.6 289 12.3
2007-11-12 09:24:40 51°15.32 2°51.371 308.1 5.8 287 12.3
2007-11-12 09:24:45 51°15.322 2°51.359 309.7 5.7 289 12.5
2007-11-12 09:24:50 51°15.324 2°51.347 309.4 5.8 282 12.4
2007-11-12 09:24:55 51°15.326 2°51.335 308.1 5.6 287 12.8
2007-11-12 09:25:00 51°15.327 2°51.323 304.8 5.6 282 12.4
2007-11-12 09:25:05 51°15.329 2°51.31 304.9 5.8 281 12.4
2007-11-12 09:25:10 51°15.331 2°51.298 303.6 5.8 282 12.3
2007-11-12 09:25:15 51°15.332 2°51.285 302.3 5.9 280 12.4
2007-11-12 09:25:20 51°15.333 2°51.272 301.5 6 275 12.7
2007-11-12 09:25:25 51°15.335 2°51.26 299.3 5.8 278 12.8
2007-11-12 09:25:29 51°15.335 2°51.249 296.8 5.8 276 12.5
2007-11-12 09:25:35 51°15.335 2°51.233 295.2 6.1 271 12.3
2007-11-12 09:25:40 51°15.336 2°51.22 295.2 6.1 274 12.1
2007-11-12 09:25:45 51°15.335 2°51.207 293.6 6.3 267 12.1
2007-11-12 09:25:49 51°15.336 2°51.196 292.2 6 277 12.3
2007-11-12 09:25:55 51°15.336 2°51.18 291.8 6.4 267 12.4
2007-11-12 09:26:00 51°15.337 2°51.167 291.7 6.2 274 12.8
2007-11-12 09:26:05 51°15.337 2°51.153 291.3 6.3 271 12.7
2007-11-12 09:26:09 51°15.337 2°51.141 291 6 274 12.8
2007-11-12 09:26:15 51°15.337 2°51.125 291.6 6.2 268 11.9
2007-11-12 09:26:20 51°15.337 2°51.111 291.3 6.4 268 12.5
2007-11-12 09:26:25 51°15.337 2°51.098 290.8 6.2 270 -999
2007-11-12 09:26:29 51°15.336 2°51.087 290.4 6.1 268 12.1
2007-11-12 09:26:35 51°15.336 2°51.071 289.7 6.2 268 -999
2007-11-12 09:26:40 51°15.336 2°51.057 289.8 6.3 270 12.7
2007-11-12 09:26:45 51°15.337 2°51.045 290.9 5.9 273 12.8
2007-11-12 09:26:50 51°15.337 2°51.032 290.2 5.6 271 12.9
2007-11-12 09:26:55 51°15.336 2°51.02 291.7 5.5 264 12.9
2007-11-12 09:27:00 51°15.336 2°51.01 291.8 4.9 268 12.6
2007-11-12 09:27:05 51°15.335 2°51 291.9 4.6 266 12.5
2007-11-12 09:27:10 51°15.335 2°50.991 291 4.3 265 -999
2007-11-12 09:27:15 51°15.334 2°50.982 291.1 4 264 4.3
2007-11-12 09:27:20 51°15.334 2°50.973 291.3 3.9 261 13.1
2007-11-12 09:27:25 51°15.333 2°50.965 291.5 3.6 262 13.2
2007-11-12 09:27:30 51°15.332 2°50.957 291.5 3.7 253 13.4
2007-11-12 09:27:35 51°15.33 2°50.95 291 3.3 258 4.6
2007-11-12 09:27:40 51°15.329 2°50.943 290.2 3.6 245 13.3
2007-11-12 09:27:45 51°15.327 2°50.936 289.8 3 256 4.1
2007-11-12 09:27:49 51°15.327 2°50.931 287.3 3.4 244 13
2007-11-12 09:27:55 51°15.324 2°50.923 287.4 2.9 256 -999
2007-11-12 09:28:00 51°15.323 2°50.916 286.5 3.1 241 13.2
2007-11-12 09:28:05 51°15.321 2°50.911 286.8 2.5 251 13.1
2007-11-12 09:28:09 51°15.32 2°50.906 286.2 3 237 13.1
2007-11-12 09:28:15 51°15.317 2°50.899 286.6 2.8 245 12.8
2007-11-12 09:28:20 51°15.315 2°50.894 284.7 3.2 236 12.8
2007-11-12 09:28:25 51°15.314 2°50.889 284.5 2.3 255 12.9
2007-11-12 09:28:29 51°15.312 2°50.884 283.7 3 232 12.9
2007-11-12 09:28:35 51°15.31 2°50.879 283.9 2.3 248 4
2007-11-12 09:28:40 51°15.307 2°50.874 284.5 3.1 225 12.9
2007-11-12 09:28:45 51°15.306 2°50.87 284.6 1.9 252 4.4
2007-11-12 09:28:49 51°15.303 2°50.866 281.7 3 223 12.9
2007-11-12 09:28:55 51°15.301 2°50.861 283.1 2.2 236 -999
2007-11-12 09:29:00 51°15.299 2°50.857 281.3 2.5 227 12.7
2007-11-12 09:29:05 51°15.296 2°50.853 281.1 2.3 228 -999
2007-11-12 09:29:10 51°15.294 2°50.849 280.1 2.6 222 13.1
2007-11-12 09:29:15 51°15.292 2°50.845 279.2 2.2 231 4.3
2007-11-12 09:29:20 51°15.289 2°50.841 278.1 2.5 227 13
2007-11-12 09:29:25 51°15.286 2°50.837 277.3 3 216 13
2007-11-12 09:29:30 51°15.286 2°50.833 276.5 1.8 255 -999
2007-11-12 09:29:35 51°15.28 2°50.83 275.4 3.4 211 12.7
2007-11-12 09:29:40 51°15.281 2°50.826 274.3 1.9 237 12.8
2007-11-12 09:29:45 51°15.277 2°50.823 275.8 2.4 221 12.2
2007-11-12 09:29:50 51°15.275 2°50.82 274.4 2.3 223 12.5
2007-11-12 09:29:55 51°15.272 2°50.817 274.8 2.4 215 12.7
2007-11-12 09:30:00 51°15.27 2°50.814 273.2 2.2 214 12.9
2007-11-12 09:30:05 51°15.268 2°50.811 273.5 1.8 226 13.1
2007-11-12 09:30:09 51°15.266 2°50.808 270.8 2.5 210 12.8
2007-11-12 09:30:15 51°15.262 2°50.805 272.1 2.5 209 12.9
2007-11-12 09:30:20 51°15.26 2°50.802 270 2.2 216 12.9
2007-11-12 09:30:25 51°15.257 2°50.799 267.8 2 223 12.6
2007-11-12 09:30:29 51°15.255 2°50.797 267.8 2.5 208 12.4
2007-11-12 09:30:35 51°15.252 2°50.794 266.8 2.2 214 12.7
2007-11-12 09:30:40 51°15.25 2°50.791 266.1 2.2 214 13
2007-11-12 09:30:45 51°15.246 2°50.789 264.9 2.3 209 -999
2007-11-12 09:30:49 51°15.246 2°50.787 263.8 2.1 212 13.3
2007-11-12 09:30:55 51°15.242 2°50.784 262.3 1.9 220 13
2007-11-12 09:31:00 51°15.238 2°50.782 262.4 3.3 195 13.1
2007-11-12 09:31:05 51°15.237 2°50.777 261.3 2 239 12.9
2007-11-12 09:31:09 51°15.234 2°50.774 261.2 3.1 221 12.7
2007-11-12 09:31:15 51°15.231 2°50.768 260.4 3.1 237 12.8
2007-11-12 09:31:20 51°15.228 2°50.761 261.3 3.9 233 12.9
2007-11-12 09:31:25 51°15.225 2°50.753 262 4.1 242 12.8
2007-11-12 09:31:29 51°15.223 2°50.747 263.4 4.5 238 12.9
2007-11-12 09:31:35 51°15.22 2°50.736 265.6 4.1 252 13
2007-11-12 09:31:40 51°15.217 2°50.728 265.9 4.6 239 12.9
2007-11-12 09:31:45 51°15.216 2°50.718 269.1 4.3 258 13.1
2007-11-12 09:31:50 51°15.213 2°50.709 271.4 4.8 244 12.9
2007-11-12 09:31:55 51°15.212 2°50.699 273.1 4.5 261 12.9
2007-11-12 09:32:00 51°15.209 2°50.69 275.4 4.8 247 12.9
2007-11-12 09:32:05 51°15.209 2°50.68 276.5 4.5 261 13.1
2007-11-12 09:32:09 51°15.206 2°50.671 278.5 4.7 257 13
2007-11-12 09:32:15 51°15.205 2°50.659 280.3 4.9 260 12.9
2007-11-12 09:32:20 51°15.204 2°50.648 281 5 258 13
2007-11-12 09:32:25 51°15.203 2°50.637 281.3 5 258 12.9
2007-11-12 09:32:29 51°15.201 2°50.628 281.9 5.2 261 12.9
2007-11-12 09:32:35 51°15.2 2°50.613 283 5.6 261 13
2007-11-12 09:32:40 51°15.199 2°50.6 282.7 5.8 268 4.3
2007-11-12 09:32:45 51°15.198 2°50.586 283.7 6.5 259 12.8
2007-11-12 09:32:49 51°15.198 2°50.576 284.9 6 271 12.9
2007-11-12 09:32:55 51°15.197 2°50.559 284.3 6.2 262 13.1
2007-11-12 09:33:00 51°15.197 2°50.546 284.7 6.1 269 12.9
2007-11-12 09:33:05 51°15.196 2°50.532 285.6 6.3 264 12.9
2007-11-12 09:33:09 51°15.196 2°50.521 285.8 6.2 267 12.9
2007-11-12 09:33:15 51°15.195 2°50.505 286.8 6.1 265 13.1
2007-11-12 09:33:20 51°15.194 2°50.491 286.2 6 268 13.1
2007-11-12 09:33:25 51°15.194 2°50.478 285.9 6.1 265 12.8
2007-11-12 09:33:30 51°15.193 2°50.464 285.7 6 269 12.8
2007-11-12 09:33:35 51°15.192 2°50.45 285.9 6.1 264 12.7
2007-11-12 09:33:40 51°15.192 2°50.437 287 6.2 264 12.7
2007-11-12 09:33:45 51°15.191 2°50.423 286.4 6.1 268 12.6
2007-11-12 09:33:49 51°15.19 2°50.412 285.5 6.1 268 12.9
2007-11-12 09:33:55 51°15.19 2°50.396 286.3 6.3 265 12.8
2007-11-12 09:34:00 51°15.189 2°50.382 286.8 6.2 267 12.9
2007-11-12 09:34:05 51°15.189 2°50.369 286.4 6.2 265 13.2
2007-11-12 09:34:10 51°15.189 2°50.355 286.8 6.1 269 13.2
2007-11-12 09:34:15 51°15.188 2°50.342 286.6 6.1 263 13.3
2007-11-12 09:34:20 51°15.188 2°50.329 287.4 5.9 269 13.5
2007-11-12 09:34:25 51°15.186 2°50.315 286.1 6.3 263 13.4
2007-11-12 09:34:30 51°15.186 2°50.302 285.5 6.1 268 13
2007-11-12 09:34:35 51°15.185 2°50.288 285.3 6.2 263 13.3
2007-11-12 09:34:40 51°15.185 2°50.275 285.3 5.9 267 13.4
2007-11-12 09:34:45 51°15.184 2°50.262 286.5 5.9 265 13.7
2007-11-12 09:34:49 51°15.184 2°50.252 285.4 5.9 261 13
2007-11-12 09:34:54 51°15.183 2°50.24 285.2 5.6 270 12.9
2007-11-12 09:35:00 51°15.182 2°50.225 284.6 5.8 260 12.8
2007-11-12 09:35:05 51°15.182 2°50.213 285.9 5.4 271 13
2007-11-12 09:35:09 51°15.181 2°50.203 286.2 5.5 264 13.1
2007-11-12 09:35:15 51°15.18 2°50.189 286.8 5.4 265 13.4
2007-11-12 09:35:20 51°15.18 2°50.177 286.7 5.4 264 13.1
2007-11-12 09:35:25 51°15.18 2°50.165 286.3 5.3 269 13.2
2007-11-12 09:35:29 51°15.178 2°50.155 285.8 5.7 261 13
2007-11-12 09:35:35 51°15.178 2°50.141 286.8 5.5 266 13
2007-11-12 09:35:40 51°15.177 2°50.129 286.3 5.3 267 12.9
2007-11-12 09:35:45 51°15.177 2°50.117 286.6 5.4 265 13.1
2007-11-12 09:35:49 51°15.177 2°50.107 287.4 5.4 270 13
2007-11-12 09:35:55 51°15.176 2°50.092 287.4 5.8 260 13.1
2007-11-12 09:36:00 51°15.177 2°50.081 287.8 5.3 273 13
2007-11-12 09:36:05 51°15.176 2°50.069 287.5 5.5 262 13.1
2007-11-12 09:36:10 51°15.175 2°50.056 287.3 5.4 270 13.2
2007-11-12 09:36:15 51°15.174 2°50.044 287.1 5.6 260 12.9
2007-11-12 09:36:20 51°15.175 2°50.033 286 5.2 271 13.1
2007-11-12 09:36:25 51°15.173 2°50.021 286.4 5.2 266 13.1
2007-11-12 09:36:30 51°15.173 2°50.009 286.3 5.2 265 13
2007-11-12 09:36:35 51°15.172 2°49.998 287.5 5.3 267 12.9
2007-11-12 09:36:40 51°15.172 2°49.986 286.6 5.3 266 12.8
2007-11-12 09:36:45 51°15.171 2°49.974 287.3 5.3 265 13
2007-11-12 09:36:49 51°15.171 2°49.964 287.9 5.2 267 13.4
2007-11-12 09:36:55 51°15.169 2°49.95 287.2 5.3 265 13.3
2007-11-12 09:37:00 51°15.169 2°49.938 285.6 5.4 261 -999
2007-11-12 09:37:05 51°15.168 2°49.926 285.1 5.3 270 12.9
2007-11-12 09:37:09 51°15.167 2°49.917 285.1 5.8 257 13.1
2007-11-12 09:37:15 51°15.167 2°49.903 285.2 5.3 269 13
2007-11-12 09:37:20 51°15.166 2°49.891 285.1 5.2 265 12.9
2007-11-12 09:37:25 51°15.166 2°49.879 285.8 5.3 265 13.1
2007-11-12 09:37:29 51°15.165 2°49.87 285.9 5.3 268 13.1
2007-11-12 09:37:35 51°15.164 2°49.855 286.9 5.6 263 13.2
2007-11-12 09:37:40 51°15.165 2°49.844 286.6 5.3 267 13.4
2007-11-12 09:37:45 51°15.164 2°49.833 286.9 5.2 268 13.3
2007-11-12 09:37:50 51°15.163 2°49.821 285.9 5.3 265 13.2
2007-11-12 09:37:55 51°15.163 2°49.81 287.4 5.2 269 13.2
2007-11-12 09:38:00 51°15.163 2°49.798 287.5 5.3 265 13.1
2007-11-12 09:38:05 51°15.162 2°49.787 287 5.2 267 13.3
2007-11-12 09:38:10 51°15.161 2°49.775 286.8 5.3 265 13.2
2007-11-12 09:38:15 51°15.16 2°49.763 286 5.5 259 13
2007-11-12 09:38:20 51°15.161 2°49.752 285.6 5.2 269 12.8
2007-11-12 09:38:25 51°15.159 2°49.74 284.9 5.3 265 12.8
2007-11-12 09:38:29 51°15.159 2°49.731 285.1 5.6 260 12.7
2007-11-12 09:38:35 51°15.159 2°49.717 286.3 5.4 270 13
2007-11-12 09:38:40 51°15.158 2°49.705 285.1 5.4 268 13
2007-11-12 09:38:45 51°15.158 2°49.693 286 5.5 266 13
2007-11-12 09:38:50 51°15.157 2°49.681 286.9 5.6 264 12.9
2007-11-12 09:38:55 51°15.157 2°49.67 285.6 5.3 268 12.9
2007-11-12 09:39:00 51°15.156 2°49.658 285.3 5.4 262 13.1
2007-11-12 09:39:05 51°15.155 2°49.647 284.7 5.1 268 13.3
2007-11-12 09:39:09 51°15.154 2°49.637 285.9 5.4 257 13.4
2007-11-12 09:39:15 51°15.154 2°49.623 283.9 5.1 270 13.5
2007-11-12 09:39:20 51°15.152 2°49.611 284.2 5.4 263 12.8
2007-11-12 09:39:25 51°15.151 2°49.599 283.7 5.3 264 12.6
2007-11-12 09:39:29 51°15.15 2°49.59 284.8 5.3 260 12.9
2007-11-12 09:39:35 51°15.151 2°49.576 283.2 5.1 271 13.1
2007-11-12 09:39:40 51°15.148 2°49.564 284 5.6 258 12.8
2007-11-12 09:39:45 51°15.149 2°49.553 284.3 5.1 270 13.1
2007-11-12 09:39:49 51°15.147 2°49.543 283.9 5.6 256 13.1
2007-11-12 09:39:55 51°15.147 2°49.53 284.5 5.3 264 13.1
2007-11-12 09:40:00 51°15.146 2°49.518 284.5 5.1 264 13.1
2007-11-12 09:40:05 51°15.146 2°49.508 284.8 4.8 271 13.1
2007-11-12 09:40:10 51°15.144 2°49.496 285.8 5.3 260 13
2007-11-12 09:40:15 51°15.146 2°49.485 287.6 4.9 273 13.1
2007-11-12 09:40:20 51°15.144 2°49.474 288.5 5.1 267 13.3
2007-11-12 09:40:25 51°15.144 2°49.463 288.3 5.1 264 13.2
2007-11-12 09:40:30 51°15.143 2°49.452 288.9 5 261 13.3
2007-11-12 09:40:35 51°15.143 2°49.442 286.6 4.9 268 -999
2007-11-12 09:40:40 51°15.142 2°49.43 286.4 4.9 267 13.2
2007-11-12 09:40:45 51°15.141 2°49.419 286.8 4.9 264 12.9
2007-11-12 09:40:50 51°15.141 2°49.409 287.4 5 267 13.5
2007-11-12 09:40:55 51°15.141 2°49.398 286.7 5 267 13
2007-11-12 09:41:00 51°15.139 2°49.387 287.2 5.1 265 13
2007-11-12 09:41:05 51°15.138 2°49.376 284.9 5.2 259 13
2007-11-12 09:41:10 51°15.139 2°49.365 284.8 4.8 273 13.3
2007-11-12 09:41:15 51°15.137 2°49.354 285.4 5.2 259 13.3
2007-11-12 09:41:20 51°15.138 2°49.343 285.5 4.8 272 13.5
2007-11-12 09:41:25 51°15.137 2°49.332 286.1 5 263 13.5
2007-11-12 09:41:29 51°15.136 2°49.323 286.4 4.9 271 13.6
2007-11-12 09:41:35 51°15.136 2°49.31 286.4 5.1 265 13.4
2007-11-12 09:41:40 51°15.135 2°49.299 286.1 5.2 268 13.2
2007-11-12 09:41:45 51°15.135 2°49.288 286.2 5 269 13.1
2007-11-12 09:41:49 51°15.133 2°49.279 285.8 5.1 262 12.3
2007-11-12 09:41:55 51°15.134 2°49.266 285.6 4.8 266 13.1
2007-11-12 09:42:00 51°15.133 2°49.255 285.3 4.9 266 13.1
2007-11-12 09:42:05 51°15.133 2°49.244 284.7 5 270 13.1
2007-11-12 09:42:09 51°15.131 2°49.235 286.7 5.3 263 12.9
2007-11-12 09:42:15 51°15.131 2°49.221 286.3 5.3 261 12.9
2007-11-12 09:42:20 51°15.131 2°49.21 285.9 5.1 268 12.9
2007-11-12 09:42:25 51°15.129 2°49.199 284.9 5.3 263 12.6
2007-11-12 09:42:29 51°15.129 2°49.191 286.1 5 267 12.7
2007-11-12 09:42:35 51°15.128 2°49.177 284.9 5.2 260 12.8
2007-11-12 09:42:40 51°15.128 2°49.167 285.7 4.9 266 -999
2007-11-12 09:42:45 51°15.127 2°49.157 288.6 4.7 268 13.3
2007-11-12 09:42:50 51°15.126 2°49.146 287.4 4.7 261 -999
2007-11-12 09:42:55 51°15.126 2°49.136 286.6 4.7 266 13.1
2007-11-12 09:43:00 51°15.124 2°49.125 286.7 5 261 13.8
2007-11-12 09:43:05 51°15.124 2°49.114 285.2 4.9 268 13.4
2007-11-12 09:43:09 51°15.123 2°49.106 285.5 5.2 255 13.4
2007-11-12 09:43:15 51°15.124 2°49.094 285.3 4.6 277 13.5
2007-11-12 09:43:20 51°15.121 2°49.082 284.6 5.1 257 4.6
2007-11-12 09:43:25 51°15.123 2°49.072 287 4.8 272 13.5
2007-11-12 09:43:29 51°15.121 2°49.062 287.3 5 268 13.5
2007-11-12 09:43:35 51°15.12 2°49.05 287.6 5 264 12.7
2007-11-12 09:43:39 51°15.12 2°49.041 286.4 5 261 12.6
2007-11-12 09:43:44 51°15.119 2°49.031 283.1 4.8 267 12.6
2007-11-12 09:43:49 51°15.118 2°49.02 285.2 4.9 264 12.8
2007-11-12 09:43:54 51°15.118 2°49.009 284.6 4.8 268 13
2007-11-12 09:43:59 51°15.117 2°48.998 285.6 5 260 13.3
2007-11-12 09:44:04 51°15.117 2°48.987 286 4.9 272 13.7
2007-11-12 09:44:09 51°15.116 2°48.976 285.8 5.1 259 13.6
2007-11-12 09:44:14 51°15.116 2°48.966 285.9 4.8 267 13.7
2007-11-12 09:44:19 51°15.116 2°48.954 285 4.9 268 13.5
2007-11-12 09:44:24 51°15.114 2°48.943 285.1 5 266 13.5
2007-11-12 09:44:29 51°15.114 2°48.932 285.9 5.1 262 13.1
2007-11-12 09:44:33 51°15.114 2°48.923 284.9 5 272 13.3
2007-11-12 09:44:38 51°15.113 2°48.912 284.9 5.3 263 13.2
2007-11-12 09:44:43 51°15.113 2°48.901 286.3 5.2 272 13.3
2007-11-12 09:44:48 51°15.112 2°48.889 286.1 5.3 261 13.3
2007-11-12 09:44:53 51°15.112 2°48.878 287.2 5 269 13.6
2007-11-12 09:44:58 51°15.111 2°48.867 286.2 5 263 4.4
2007-11-12 09:45:03 51°15.111 2°48.857 286.9 4.9 267 13.4
2007-11-12 09:45:08 51°15.111 2°48.846 287.3 4.9 268 13.5
2007-11-12 09:45:13 51°15.111 2°48.835 287.3 4.8 267 13.6
2007-11-12 09:45:17 51°15.11 2°48.826 287.4 4.9 273 13.4
2007-11-12 09:45:23 51°15.109 2°48.813 286.7 5.1 262 13.3
2007-11-12 09:45:28 51°15.109 2°48.802 288.1 5.1 263 12.7
2007-11-12 09:45:33 51°15.109 2°48.791 287.1 4.9 272 12.8
2007-11-12 09:45:37 51°15.108 2°48.782 286 5.1 265 12.5
2007-11-12 09:45:42 51°15.109 2°48.771 286.5 5 271 12.6
2007-11-12 09:45:47 51°15.107 2°48.759 286.3 5.2 263 12.9
2007-11-12 09:45:52 51°15.108 2°48.749 286.6 5.1 266 12.9
2007-11-12 09:45:57 51°15.107 2°48.737 286.5 5 269 13.3
2007-11-12 09:46:02 51°15.106 2°48.725 285.6 5.5 258 13.7
2007-11-12 09:46:07 51°15.106 2°48.714 286.7 4.9 270 13.5
2007-11-12 09:46:12 51°15.105 2°48.704 286.6 4.7 265 13.2
2007-11-12 09:46:17 51°15.104 2°48.693 284.5 4.8 264 13.3
2007-11-12 09:46:21 51°15.103 2°48.685 284.5 5.1 258 13
2007-11-12 09:46:26 51°15.103 2°48.674 285.6 4.8 272 12.9
2007-11-12 09:46:31 51°15.102 2°48.663 286.6 4.9 267 13.3
2007-11-12 09:46:36 51°15.102 2°48.652 286.8 5 266 13.5
2007-11-12 09:46:41 51°15.102 2°48.641 288.1 4.9 269 13.5
2007-11-12 09:46:46 51°15.102 2°48.63 287.7 4.9 270 13.2
2007-11-12 09:46:51 51°15.101 2°48.62 287.6 4.9 268 13.4
2007-11-12 09:46:56 51°15.101 2°48.609 286.7 5 262 13.6
2007-11-12 09:47:01 51°15.101 2°48.598 288.8 4.8 271 13.5
2007-11-12 09:47:06 51°15.1 2°48.587 288.7 5.1 263 13.7
2007-11-12 09:47:11 51°15.1 2°48.576 289.1 4.9 267 13.5
2007-11-12 09:47:16 51°15.1 2°48.566 288.2 4.7 268 13.2
2007-11-12 09:47:21 51°15.098 2°48.555 287.2 4.9 259 13.6
2007-11-12 09:47:26 51°15.098 2°48.544 286.6 4.8 265 13.3
2007-11-12 09:47:31 51°15.096 2°48.534 285.4 4.9 265 4.1
2007-11-12 09:47:36 51°15.096 2°48.523 285.9 5.1 257 13.4
2007-11-12 09:47:41 51°15.095 2°48.512 285.4 4.7 268 13.4
2007-11-12 09:47:46 51°15.094 2°48.501 285.7 5.1 256 13.5
2007-11-12 09:47:51 51°15.094 2°48.491 286.1 4.6 272 13.3
2007-11-12 09:47:56 51°15.092 2°48.48 285.8 4.9 261 13.3
2007-11-12 09:48:01 51°15.091 2°48.469 285.3 5 263 13.3
2007-11-12 09:48:06 51°15.09 2°48.458 285.2 5.1 256 13.3
2007-11-12 09:48:11 51°15.09 2°48.449 285.7 4.6 266 13
2007-11-12 09:48:16 51°15.089 2°48.438 285.7 4.9 261 13.4
2007-11-12 09:48:21 51°15.089 2°48.428 286.3 4.6 266 13.4
2007-11-12 09:48:26 51°15.088 2°48.418 287.6 4.7 263 13.5
2007-11-12 09:48:31 51°15.088 2°48.407 288.2 4.6 271 13.4
2007-11-12 09:48:36 51°15.087 2°48.397 287.8 4.8 267 13.5
2007-11-12 09:48:41 51°15.087 2°48.386 287.8 4.8 262 13.4
2007-11-12 09:48:46 51°15.087 2°48.377 288.1 4.5 272 13.5
2007-11-12 09:48:51 51°15.086 2°48.366 289 4.5 268 13.5
2007-11-12 09:48:56 51°15.086 2°48.355 288.4 4.7 268 13.3
2007-11-12 09:49:01 51°15.086 2°48.345 288.9 4.7 272 13.4
2007-11-12 09:49:05 51°15.085 2°48.336 289.3 4.9 263 13.5
2007-11-12 09:49:11 51°15.086 2°48.324 288.8 4.7 272 13.5
2007-11-12 09:49:16 51°15.084 2°48.313 289.2 4.9 264 13.7
2007-11-12 09:49:21 51°15.085 2°48.302 288.7 4.8 271 13.7
2007-11-12 09:49:26 51°15.084 2°48.292 289 4.7 266 13.7
2007-11-12 09:49:31 51°15.084 2°48.281 288.5 4.8 265 13.6
2007-11-12 09:49:36 51°15.084 2°48.271 288.6 4.6 270 13.5
2007-11-12 09:49:41 51°15.084 2°48.26 288.7 4.8 266 13.4
2007-11-12 09:49:46 51°15.083 2°48.249 288.1 4.9 269 13.7
2007-11-12 09:49:51 51°15.083 2°48.239 288.1 4.8 269 13.5
2007-11-12 09:49:56 51°15.082 2°48.228 287.4 4.9 265 13.4
2007-11-12 09:50:01 51°15.082 2°48.217 285.5 5 267 13.3
2007-11-12 09:50:06 51°15.081 2°48.206 285.3 5.1 262 13.5
2007-11-12 09:50:11 51°15.08 2°48.196 284.4 4.9 261 12.9
2007-11-12 09:50:16 51°15.08 2°48.185 284.7 4.9 270 12.9
2007-11-12 09:50:21 51°15.076 2°48.174 282.5 5.5 250 13.1
2007-11-12 09:50:25 51°15.078 2°48.167 284.5 4.6 269 12.8
2007-11-12 09:50:31 51°15.075 2°48.154 284.3 4.8 260 13
2007-11-12 09:50:36 51°15.075 2°48.144 283.6 4.6 268 13.3
2007-11-12 09:50:41 51°15.073 2°48.133 283.8 5 255 13.4
2007-11-12 09:50:45 51°15.073 2°48.125 284.5 4.6 264 13.4
2007-11-12 09:50:51 51°15.072 2°48.113 285.6 4.6 265 13.6
2007-11-12 09:50:56 51°15.072 2°48.102 286.1 4.8 265 13.8
2007-11-12 09:51:01 51°15.07 2°48.091 286.6 5 262 14.2
2007-11-12 09:51:06 51°15.07 2°48.08 287 5.1 264 14.2
2007-11-12 09:51:11 51°15.069 2°48.069 288.1 5.2 262 13.9
2007-11-12 09:51:16 51°15.069 2°48.058 286.8 5.2 263 13.6
2007-11-12 09:51:21 51°15.069 2°48.047 287.3 5.1 268 13.6
2007-11-12 09:51:26 51°15.068 2°48.036 287.9 5.2 264 13.6
2007-11-12 09:51:31 51°15.068 2°48.024 287.2 5.1 267 13.4
2007-11-12 09:51:36 51°15.067 2°48.012 286.5 5.2 268 13.6
2007-11-12 09:51:41 51°15.066 2°48 286.6 5.3 264 13.6
2007-11-12 09:51:46 51°15.066 2°47.989 286.9 5.3 268 13.4
2007-11-12 09:51:51 51°15.065 2°47.977 286.6 5.5 260 13.5
2007-11-12 09:51:56 51°15.066 2°47.965 286.2 5.2 271 13
2007-11-12 09:52:01 51°15.064 2°47.953 287.2 5.4 262 13.1
2007-11-12 09:52:06 51°15.065 2°47.941 286.2 5.5 268 12.9
2007-11-12 09:52:11 51°15.064 2°47.928 286.6 5.7 265 13.1
2007-11-12 09:52:16 51°15.064 2°47.916 286.2 5.6 268 13
2007-11-12 09:52:21 51°15.064 2°47.904 287.4 5.4 274 13
2007-11-12 09:52:26 51°15.064 2°47.892 288.5 5.5 269 12.9
2007-11-12 09:52:31 51°15.063 2°47.88 287.3 5.1 269 -999
2007-11-12 09:52:36 51°15.062 2°47.868 284.7 5.3 268 12.6
2007-11-12 09:52:41 51°15.062 2°47.856 285.6 5.3 263 12.5
2007-11-12 09:52:46 51°15.062 2°47.845 286 5 270 12.7
2007-11-12 09:52:51 51°15.061 2°47.834 285.9 5.1 266 12.7
2007-11-12 09:52:56 51°15.06 2°47.823 285.1 5.1 268 13.1
2007-11-12 09:53:01 51°15.06 2°47.811 286.4 5.1 265 12.9
2007-11-12 09:53:06 51°15.06 2°47.8 288.1 5 274 12.8
2007-11-12 09:53:11 51°15.06 2°47.788 287.9 5.4 267 12.7
2007-11-12 09:53:16 51°15.06 2°47.776 288.2 5.3 270 12.7
2007-11-12 09:53:21 51°15.06 2°47.764 288.4 5.5 265 12.7
2007-11-12 09:53:26 51°15.06 2°47.753 289.4 5.3 276 12.6
2007-11-12 09:53:31 51°15.06 2°47.74 288.8 5.6 265 12.5
2007-11-12 09:53:36 51°15.061 2°47.729 288.9 5.5 277 12.6
2007-11-12 09:53:41 51°15.06 2°47.716 288.8 5.7 267 12.6
2007-11-12 09:53:45 51°15.06 2°47.706 288.1 5.6 270 12.3
2007-11-12 09:53:51 51°15.06 2°47.692 287.7 5.5 269 12.2
2007-11-12 09:53:56 51°15.059 2°47.679 287.5 5.6 267 12.1
2007-11-12 09:54:01 51°15.059 2°47.666 286.5 5.8 266 11.8
2007-11-12 09:54:06 51°15.059 2°47.654 285.9 5.7 268 11.8
2007-11-12 09:54:11 51°15.059 2°47.641 285.6 5.7 267 11.4
2007-11-12 09:54:16 51°15.059 2°47.629 286 5.6 272 11.2
2007-11-12 09:54:21 51°15.058 2°47.616 286.1 5.6 269 11.2
2007-11-12 09:54:26 51°15.058 2°47.603 285.9 5.6 269 11.6
2007-11-12 09:54:31 51°15.058 2°47.591 285.9 5.6 266 10.9
2007-11-12 09:54:36 51°15.058 2°47.579 287 5.5 271 11.1
2007-11-12 09:54:41 51°15.058 2°47.566 287 5.6 270 11
2007-11-12 09:54:46 51°15.057 2°47.554 287.2 5.5 270 10.5
2007-11-12 09:54:51 51°15.057 2°47.542 286.3 5.7 261 -999
2007-11-12 09:54:56 51°15.057 2°47.53 284.4 5.4 266 10.1
2007-11-12 09:55:01 51°15.056 2°47.519 285.2 5.4 266 10.4
2007-11-12 09:55:06 51°15.056 2°47.507 286.1 5.5 267 11
2007-11-12 09:55:11 51°15.056 2°47.495 286.9 5.5 270 11.1
2007-11-12 09:55:16 51°15.056 2°47.482 285.9 5.6 268 11.2
2007-11-12 09:55:21 51°15.056 2°47.47 286.6 5.5 268 11.2
2007-11-12 09:55:25 51°15.056 2°47.461 286 5.4 271 11.1
2007-11-12 09:55:31 51°15.056 2°47.446 286.5 5.4 273 10.7
2007-11-12 09:55:36 51°15.056 2°47.434 287.1 5.2 268 10.4
2007-11-12 09:55:41 51°15.055 2°47.422 285.4 5.3 266 10.5
2007-11-12 09:55:45 51°15.055 2°47.412 286.2 5.2 269 10.3
2007-11-12 09:55:51 51°15.054 2°47.398 283.9 5.3 264 10.1
2007-11-12 09:55:56 51°15.054 2°47.386 284.6 5.4 270 10.2
2007-11-12 09:56:01 51°15.053 2°47.374 285.2 5.6 262 10.2
2007-11-12 09:56:06 51°15.053 2°47.362 283.7 5.5 267 10.4
2007-11-12 09:56:11 51°15.053 2°47.35 283.7 5.5 267 10.3
2007-11-12 09:56:16 51°15.052 2°47.338 283.8 5.4 269 10.2
2007-11-12 09:56:21 51°15.052 2°47.326 283.6 5.5 267 10.3
2007-11-12 09:56:26 51°15.052 2°47.314 284.4 5.5 271 10.3
2007-11-12 09:56:31 51°15.051 2°47.302 283.9 5.5 267 10.4
2007-11-12 09:56:36 51°15.051 2°47.29 284.5 5.4 272 10.3
2007-11-12 09:56:41 51°15.051 2°47.278 285.5 5.4 268 10.1
2007-11-12 09:56:46 51°15.051 2°47.267 285.1 5.4 269 10.1
2007-11-12 09:56:51 51°15.052 2°47.255 286.5 5.2 278 10
2007-11-12 09:56:56 51°15.051 2°47.242 286.1 5.5 266 9.9
2007-11-12 09:57:01 51°15.052 2°47.23 287.5 5.4 276 9.7
2007-11-12 09:57:06 51°15.051 2°47.218 287.1 5.7 268 9.8
2007-11-12 09:57:11 51°15.052 2°47.206 287.7 5.4 276 9.9
2007-11-12 09:57:16 51°15.049 2°47.194 287.7 5.9 252 -999
2007-11-12 09:57:21 51°15.052 2°47.184 286.6 5 277 8.8
2007-11-12 09:57:26 51°15.05 2°47.173 286.1 5.1 262 8.6
2007-11-12 09:57:32 51°15.05 2°47.16 285.9 4.9 269 8.8
2007-11-12 09:57:36 51°15.048 2°47.15 284.7 5 265 9.4
2007-11-12 09:57:41 51°15.05 2°47.139 283.4 5.2 271 9.9
2007-11-12 09:57:46 51°15.048 2°47.128 285.1 5.1 268 10.3
2007-11-12 09:57:51 51°15.047 2°47.117 285.1 5.4 258 10.4
2007-11-12 09:57:56 51°15.048 2°47.106 285.8 5.3 267 10
2007-11-12 09:58:01 51°15.048 2°47.094 286.6 5.1 267 10.1
2007-11-12 09:58:06 51°15.048 2°47.083 285.8 5.1 270 9.9
2007-11-12 09:58:11 51°15.048 2°47.072 286.7 5 271 10
2007-11-12 09:58:16 51°15.047 2°47.06 286.3 5.1 269 10.2
2007-11-12 09:58:21 51°15.047 2°47.048 286.5 5.3 271 10.2
2007-11-12 09:58:26 51°15.046 2°47.036 286.6 5.4 269 10.2
2007-11-12 09:58:31 51°15.046 2°47.024 284.9 5.7 264 10
2007-11-12 09:58:36 51°15.048 2°47.013 287.6 5.2 279 9.8
2007-11-12 09:58:41 51°15.047 2°47.001 288.1 5.4 267 9.9
2007-11-12 09:58:46 51°15.048 2°46.989 288.1 5.2 277 9.9
2007-11-12 09:58:51 51°15.047 2°46.977 288 5.3 264 10
2007-11-12 09:58:56 51°15.048 2°46.967 288.5 4.9 279 9.9
2007-11-12 09:59:01 51°15.047 2°46.955 288.3 5.1 264 10.2
2007-11-12 09:59:06 51°15.048 2°46.945 288 4.9 273 10
2007-11-12 09:59:11 51°15.048 2°46.934 289 4.9 274 10.1
2007-11-12 09:59:16 51°15.047 2°46.922 287.3 5.2 266 10.2
2007-11-12 09:59:21 51°15.047 2°46.911 287.4 5.2 269 10.3
2007-11-12 09:59:26 51°15.048 2°46.9 286.5 5.1 271 10.2
2007-11-12 09:59:31 51°15.047 2°46.889 286.6 5 264 10.2
2007-11-12 09:59:36 51°15.048 2°46.878 286.5 5 275 10.2
2007-11-12 09:59:41 51°15.046 2°46.867 286.2 5.1 265 10.1
2007-11-12 09:59:45 51°15.047 2°46.858 284.8 5 267 9.9
2007-11-12 09:59:51 51°15.046 2°46.845 285.8 5.1 266 9.9
2007-11-12 09:59:56 51°15.046 2°46.834 284.7 5 270 10
2007-11-12 10:00:01 51°15.046 2°46.823 285.7 4.9 266 9.9
2007-11-12 10:00:06 51°15.045 2°46.812 285.3 4.9 261 10.3
2007-11-12 10:00:11 51°15.044 2°46.802 285.1 4.7 264 10
2007-11-12 10:00:16 51°15.044 2°46.791 284.2 4.7 266 9.9
2007-11-12 10:00:21 51°15.043 2°46.781 282.8 4.7 268 9.7
2007-11-12 10:00:26 51°15.041 2°46.77 282.5 4.9 260 9.9
2007-11-12 10:00:31 51°15.042 2°46.76 283.9 4.7 263 9.7
2007-11-12 10:00:36 51°15.041 2°46.75 285.9 4.6 267 9.7
2007-11-12 10:00:41 51°15.041 2°46.739 285.7 4.6 270 9.8
2007-11-12 10:00:46 51°15.04 2°46.728 285.2 4.7 267 9.8
2007-11-12 10:00:51 51°15.04 2°46.718 284.3 4.7 269 10
2007-11-12 10:00:56 51°15.039 2°46.708 285 4.7 267 10.2
2007-11-12 10:01:01 51°15.039 2°46.697 285 4.7 267 10.4
2007-11-12 10:01:06 51°15.039 2°46.687 285.1 4.7 270 10.7
2007-11-12 10:01:11 51°15.039 2°46.677 286.4 4.8 266 10.9
2007-11-12 10:01:16 51°15.039 2°46.666 286.5 4.9 273 10.9
2007-11-12 10:01:21 51°15.039 2°46.655 287 5 265 10.8
2007-11-12 10:01:26 51°15.039 2°46.645 286.7 4.7 267 10.7
2007-11-12 10:01:31 51°15.038 2°46.634 287.1 4.7 269 10.6
2007-11-12 10:01:36 51°15.037 2°46.623 284.2 4.9 263 10.7
2007-11-12 10:01:41 51°15.038 2°46.613 284.6 4.8 265 10.5
2007-11-12 10:01:46 51°15.038 2°46.602 285.6 4.6 273 10.4
2007-11-12 10:01:51 51°15.036 2°46.591 284.2 5.1 256 10.4
2007-11-12 10:01:56 51°15.037 2°46.581 284.7 4.7 272 10.3
2007-11-12 10:02:01 51°15.036 2°46.57 285.2 4.8 263 10.5
2007-11-12 10:02:06 51°15.036 2°46.56 284.3 4.7 268 10.7
2007-11-12 10:02:11 51°15.035 2°46.549 284.4 4.9 271 10.9
2007-11-12 10:02:16 51°15.035 2°46.538 285.1 4.9 265 11.1
2007-11-12 10:02:21 51°15.035 2°46.528 286.3 4.7 268 10.9
2007-11-12 10:02:25 51°15.035 2°46.52 285.7 4.9 265 10.9
2007-11-12 10:02:31 51°15.034 2°46.507 285 4.7 271 10.9
2007-11-12 10:02:36 51°15.034 2°46.497 284.9 4.8 267 11
2007-11-12 10:02:41 51°15.032 2°46.486 286.3 4.8 259 11.1
2007-11-12 10:02:46 51°15.033 2°46.476 285.8 4.6 266 4
2007-11-12 10:02:51 51°15.032 2°46.465 284.2 4.7 268 10.4
2007-11-12 10:02:56 51°15.032 2°46.455 284.1 4.9 263 10.6
2007-11-12 10:03:01 51°15.032 2°46.444 285.3 4.8 277 10.9
2007-11-12 10:03:06 51°15.031 2°46.433 286.3 5.2 263 11.3
2007-11-12 10:03:11 51°15.032 2°46.422 285.9 5 270 11.2
2007-11-12 10:03:16 51°15.032 2°46.412 286 4.8 269 11.2
2007-11-12 10:03:21 51°15.031 2°46.402 287.6 4.5 271 11.3
2007-11-12 10:03:26 51°15.032 2°46.391 288.2 4.7 272 11.1
2007-11-12 10:03:31 51°15.032 2°46.38 286.9 4.8 274 11.1
2007-11-12 10:03:36 51°15.031 2°46.37 288.2 4.8 268 11
2007-11-12 10:03:41 51°15.031 2°46.359 287 5 269 11.2
2007-11-12 10:03:46 51°15.032 2°46.348 287.6 4.9 273 11.3
2007-11-12 10:03:51 51°15.032 2°46.338 287.5 4.9 269 11.7
2007-11-12 10:03:56 51°15.032 2°46.327 289.1 5 270 11.5
2007-11-12 10:04:01 51°15.033 2°46.315 288.6 4.9 277 11.5
2007-11-12 10:04:06 51°15.032 2°46.304 288 5 267 11.5
2007-11-12 10:04:11 51°15.033 2°46.294 286.2 4.8 272 11.5
2007-11-12 10:04:16 51°15.032 2°46.284 287.1 4.8 269 11.9
2007-11-12 10:04:21 51°15.032 2°46.273 287.1 5 264 11.9
2007-11-12 10:04:26 51°15.033 2°46.263 288.3 4.7 277 11.5
2007-11-12 10:04:31 51°15.032 2°46.251 286.6 5 263 11.8
2007-11-12 10:04:36 51°15.033 2°46.241 285.4 4.7 276 11.9
2007-11-12 10:04:41 51°15.032 2°46.23 286.1 4.9 267 12.2
2007-11-12 10:04:46 51°15.033 2°46.219 285.6 4.8 276 12.4
2007-11-12 10:04:51 51°15.032 2°46.208 286.3 5 272 12.5
2007-11-12 10:04:56 51°15.032 2°46.196 286.4 5.2 268 12.5
2007-11-12 10:05:01 51°15.032 2°46.185 284.9 5.3 267 12.3
2007-11-12 10:05:06 51°15.032 2°46.173 284.9 5.2 270 12.1
2007-11-12 10:05:11 51°15.032 2°46.162 284.5 5.3 271 12.3
2007-11-12 10:05:16 51°15.032 2°46.15 285.2 5.5 271 12.6
2007-11-12 10:05:21 51°15.033 2°46.138 285.4 5.5 272 12.7
2007-11-12 10:05:26 51°15.033 2°46.127 286.7 5.3 271 12.5
2007-11-12 10:05:31 51°15.032 2°46.115 286.4 5.4 270 12.4
2007-11-12 10:05:36 51°15.032 2°46.104 286.2 5.4 268 12.7
2007-11-12 10:05:41 51°15.033 2°46.092 285.7 5.4 272 12.6
2007-11-12 10:05:46 51°15.032 2°46.081 286.3 5.3 267 12.5
2007-11-12 10:05:51 51°15.033 2°46.07 286.7 5 274 12.3
2007-11-12 10:05:56 51°15.033 2°46.058 287.3 5 273 12.5
2007-11-12 10:06:01 51°15.033 2°46.046 288 5.2 269 12.6
2007-11-12 10:06:06 51°15.033 2°46.035 287.7 5.3 275 12.7
2007-11-12 10:06:11 51°15.034 2°46.023 287.6 5.4 273 12.8
2007-11-12 10:06:16 51°15.034 2°46.011 287.1 5.5 270 13.2
2007-11-12 10:06:21 51°15.035 2°45.999 288.5 5.5 273 12.8
2007-11-12 10:06:26 51°15.034 2°45.987 285.7 5.3 272 13.1
2007-11-12 10:06:31 51°15.035 2°45.974 286.7 5.5 270 13
2007-11-12 10:06:36 51°15.035 2°45.962 286.4 5.4 277 12.7
2007-11-12 10:06:41 51°15.035 2°45.949 285.9 5.7 268 12.7
2007-11-12 10:06:45 51°15.036 2°45.939 286.3 5.5 279 13.1
2007-11-12 10:06:51 51°15.035 2°45.924 286.7 5.8 268 13.7
2007-11-12 10:06:56 51°15.037 2°45.912 286.9 5.7 275 13.6
2007-11-12 10:07:01 51°15.036 2°45.899 285.6 5.8 272 13.8
2007-11-12 10:07:06 51°15.037 2°45.887 285.6 5.8 270 13.8
2007-11-12 10:07:11 51°15.037 2°45.874 285.3 5.7 272 13.7
2007-11-12 10:07:16 51°15.038 2°45.862 285.9 5.5 279 13.6
2007-11-12 10:07:21 51°15.037 2°45.849 285.4 5.5 267 13.3
2007-11-12 10:07:26 51°15.038 2°45.838 285.1 5.3 272 13.4
2007-11-12 10:07:31 51°15.037 2°45.825 284.6 5.5 267 13.5
2007-11-12 10:07:36 51°15.037 2°45.813 284.6 5.3 267 13.6
2007-11-12 10:07:41 51°15.037 2°45.802 285.1 5.2 266 13.7
2007-11-12 10:07:46 51°15.038 2°45.79 283.9 5.3 274 13.8
2007-11-12 10:07:51 51°15.036 2°45.778 283.3 5.6 265 13.8
2007-11-12 10:07:56 51°15.037 2°45.766 284.5 5.4 271 13.8
2007-11-12 10:08:01 51°15.037 2°45.755 286.2 5.2 270 13.7
2007-11-12 10:08:06 51°15.038 2°45.743 287.4 5.1 273 13.9
2007-11-12 10:08:11 51°15.038 2°45.732 286.7 5.2 272 14.4
2007-11-12 10:08:16 51°15.038 2°45.72 287.8 5.3 271 14.7
2007-11-12 10:08:21 51°15.039 2°45.708 287.4 5.3 277 14.7
2007-11-12 10:08:26 51°15.039 2°45.696 287.6 5.5 271 14.9
2007-11-12 10:08:31 51°15.039 2°45.684 286.6 5.6 267 15
2007-11-12 10:08:36 51°15.04 2°45.673 288.1 5.1 278 14.6
2007-11-12 10:08:41 51°15.04 2°45.661 288 5.3 272 14.6
2007-11-12 10:08:46 51°15.041 2°45.649 287.6 5.3 276 14.7
2007-11-12 10:08:51 51°15.041 2°45.637 287.9 5.5 269 14.8
2007-11-12 10:08:56 51°15.042 2°45.626 288.1 5.3 281 14.8
2007-11-12 10:09:01 51°15.041 2°45.613 287.4 5.5 268 14.9
2007-11-12 10:09:06 51°15.043 2°45.602 287.3 5.3 276 15
2007-11-12 10:09:11 51°15.043 2°45.589 288.1 5.2 280 14.9
2007-11-12 10:09:16 51°15.043 2°45.577 287.7 5.4 268 14.9
2007-11-12 10:09:21 51°15.044 2°45.565 286.8 5.3 274 14.6
2007-11-12 10:09:25 51°15.043 2°45.556 286.2 5.3 266 14.7
2007-11-12 10:09:31 51°15.044 2°45.543 285.9 5.1 273 14.7
2007-11-12 10:09:36 51°15.043 2°45.531 284.9 5.1 269 14.4
2007-11-12 10:09:41 51°15.043 2°45.519 283.7 5 269 14.6
2007-11-12 10:09:46 51°15.042 2°45.507 282.6 5.4 266 14.8
2007-11-12 10:09:51 51°15.043 2°45.496 284.1 5.1 276 15
2007-11-12 10:09:56 51°15.042 2°45.485 284 5.4 262 14.8
2007-11-12 10:10:01 51°15.043 2°45.474 285.6 5 276 14.6
2007-11-12 10:10:06 51°15.042 2°45.462 284 5.2 266 15
2007-11-12 10:10:11 51°15.043 2°45.451 284.2 5.2 275 15.2
2007-11-12 10:10:16 51°15.042 2°45.438 284.7 5.4 268 15.8
2007-11-12 10:10:21 51°15.043 2°45.427 284.5 5.3 272 15.6
2007-11-12 10:10:26 51°15.042 2°45.415 287.3 5.4 268 15.6
2007-11-12 10:10:31 51°15.043 2°45.404 285.9 5.1 269 15.5
2007-11-12 10:10:36 51°15.043 2°45.393 285.8 4.9 272 15.3
2007-11-12 10:10:41 51°15.042 2°45.382 285.4 5 271 15.5
2007-11-12 10:10:46 51°15.042 2°45.37 283.9 5.2 266 15.7
2007-11-12 10:10:51 51°15.043 2°45.359 286.6 5 273 15.5
2007-11-12 10:10:56 51°15.043 2°45.348 286.2 5 274 15.4
2007-11-12 10:11:01 51°15.043 2°45.336 285.2 5.2 269 15.7
2007-11-12 10:11:05 51°15.043 2°45.327 286.7 5 275 15.9
2007-11-12 10:11:11 51°15.042 2°45.314 287.2 5.2 265 16.4
2007-11-12 10:11:16 51°15.044 2°45.303 287.3 4.9 275 16.2
2007-11-12 10:11:21 51°15.042 2°45.291 285.7 5.2 266 16.2
2007-11-12 10:11:26 51°15.043 2°45.28 285.2 5.1 271 16.3
2007-11-12 10:11:31 51°15.044 2°45.269 285.8 5 273 16.1
2007-11-12 10:11:36 51°15.044 2°45.258 287.6 5.1 277 16.1
2007-11-12 10:11:41 51°15.044 2°45.246 287.1 5.3 268 16.3
2007-11-12 10:11:46 51°15.044 2°45.235 286.9 5.3 268 16.2
2007-11-12 10:11:51 51°15.045 2°45.224 288.5 5 276 15.8
2007-11-12 10:11:56 51°15.045 2°45.212 286.8 5.2 271 15.8
2007-11-12 10:12:01 51°15.046 2°45.201 287.3 5.1 277 15.6
2007-11-12 10:12:06 51°15.045 2°45.189 286.5 5.3 267 15.9
2007-11-12 10:12:11 51°15.045 2°45.178 285.5 5.2 267 15.9
2007-11-12 10:12:16 51°15.046 2°45.167 288.1 5 277 15.9
2007-11-12 10:12:21 51°15.046 2°45.155 287.5 5.2 267 16.2
2007-11-12 10:12:26 51°15.047 2°45.144 286.8 4.9 277 16.7
2007-11-12 10:12:31 51°15.046 2°45.132 287.4 5.2 268 17.1
2007-11-12 10:12:36 51°15.047 2°45.121 287.6 5.1 277 17.3
2007-11-12 10:12:41 51°15.047 2°45.11 287.2 5.3 268 17.4
2007-11-12 10:12:46 51°15.048 2°45.099 287.4 5.2 279 17.4
2007-11-12 10:12:51 51°15.047 2°45.086 286.9 5.5 267 17.4
2007-11-12 10:12:56 51°15.048 2°45.075 285.9 5.2 274 17.1
2007-11-12 10:13:01 51°15.049 2°45.064 286.3 5 274 16.9
2007-11-12 10:13:06 51°15.049 2°45.053 286.9 5.2 272 16.9
2007-11-12 10:13:11 51°15.049 2°45.041 286.4 5.4 272 17
2007-11-12 10:13:16 51°15.05 2°45.029 286.7 5.3 276 16.9
2007-11-12 10:13:21 51°15.049 2°45.017 287.2 5.4 268 16.9
2007-11-12 10:13:26 51°15.051 2°45.007 287.4 5 279 16.9
2007-11-12 10:13:31 51°15.05 2°44.995 288 5.2 270 16.9
2007-11-12 10:13:36 51°15.052 2°44.984 287.9 5.1 278 16.9
2007-11-12 10:13:41 51°15.052 2°44.973 287.9 5 275 17
2007-11-12 10:13:45 51°15.052 2°44.963 287.3 5.2 274 17.1
2007-11-12 10:13:51 51°15.052 2°44.95 287 5.1 272 17.2
2007-11-12 10:13:56 51°15.052 2°44.939 286.7 5 270 17
2007-11-12 10:14:01 51°15.053 2°44.928 287.4 4.9 275 16.8
2007-11-12 10:14:06 51°15.053 2°44.916 285.3 5.1 271 4.8
2007-11-12 10:14:11 51°15.052 2°44.904 284.5 5.2 270 17
2007-11-12 10:14:16 51°15.053 2°44.893 285.8 5.1 271 17.1
2007-11-12 10:14:21 51°15.053 2°44.882 285 5.1 273 17.3
2007-11-12 10:14:26 51°15.053 2°44.871 286.1 5.2 270 17.3
2007-11-12 10:14:31 51°15.054 2°44.859 285.3 5 280 17.5
2007-11-12 10:14:36 51°15.053 2°44.847 285.1 5.5 263 17.6
2007-11-12 10:14:41 51°15.054 2°44.836 285 5.1 276 17.4
2007-11-12 10:14:46 51°15.053 2°44.824 284.1 5.6 264 17.7
2007-11-12 10:14:51 51°15.054 2°44.813 284.4 5.3 273 17.7
2007-11-12 10:14:56 51°15.053 2°44.802 284 5.3 263 17.1
2007-11-12 10:15:01 51°15.054 2°44.791 285.7 4.9 277 16.9
2007-11-12 10:15:06 51°15.053 2°44.779 286.1 5.1 268 16.9
2007-11-12 10:15:11 51°15.054 2°44.769 286.5 5 271 17.3
2007-11-12 10:15:16 51°15.055 2°44.758 287 4.8 277 17.4
2007-11-12 10:15:21 51°15.055 2°44.746 287.1 5.1 272 17.7
2007-11-12 10:15:26 51°15.055 2°44.735 287.7 5.1 275 17.8
2007-11-12 10:15:31 51°15.055 2°44.723 287.4 5.2 267 17.6
2007-11-12 10:15:36 51°15.056 2°44.713 287.1 4.6 275 17.2
2007-11-12 10:15:41 51°15.054 2°44.703 286.1 4.7 268 17.5
2007-11-12 10:15:45 51°15.055 2°44.694 285.2 4.7 269 17.5
2007-11-12 10:15:51 51°15.055 2°44.682 286.2 4.6 275 17.6
2007-11-12 10:15:56 51°15.055 2°44.672 286.3 4.8 271 18
2007-11-12 10:16:01 51°15.055 2°44.661 285.8 4.7 268 18
2007-11-12 10:16:05 51°15.055 2°44.653 286.4 4.7 272 17.8
2007-11-12 10:16:11 51°15.055 2°44.64 285.9 4.7 270 17.9
2007-11-12 10:16:16 51°15.055 2°44.63 285.6 4.8 269 17.9
2007-11-12 10:16:21 51°15.056 2°44.619 286.3 4.5 279 17.9
2007-11-12 10:16:26 51°15.055 2°44.608 285.6 5.1 263 18
2007-11-12 10:16:31 51°15.056 2°44.597 286.1 4.9 276 17.8
2007-11-12 10:16:36 51°15.056 2°44.587 286.2 4.9 274 18
2007-11-12 10:16:41 51°15.056 2°44.576 287.1 5.1 266 18.1
2007-11-12 10:16:46 51°15.057 2°44.565 287.4 4.7 281 18
2007-11-12 10:16:51 51°15.056 2°44.554 285.9 5 262 17.9
2007-11-12 10:16:56 51°15.057 2°44.544 285.2 4.6 276 17.9
2007-11-12 10:17:01 51°15.056 2°44.534 286.3 4.8 269 18.2
2007-11-12 10:17:06 51°15.057 2°44.523 286.3 4.7 272 18.3
2007-11-12 10:17:11 51°15.056 2°44.512 286.6 4.9 270 18.4
2007-11-12 10:17:16 51°15.057 2°44.501 284.8 4.9 269 18.6
2007-11-12 10:17:21 51°15.057 2°44.491 285.5 4.9 272 18.5
2007-11-12 10:17:26 51°15.057 2°44.48 286.6 4.8 276 18.5
2007-11-12 10:17:31 51°15.057 2°44.468 285.6 5.3 265 18.5
2007-11-12 10:17:36 51°15.058 2°44.459 285.9 4.8 279 18.3
2007-11-12 10:17:41 51°15.057 2°44.448 286.8 4.7 272 18.4
2007-11-12 10:17:46 51°15.058 2°44.438 286.9 4.5 273 18.5
2007-11-12 10:17:51 51°15.058 2°44.428 286.8 4.5 267 18.6
2007-11-12 10:17:56 51°15.059 2°44.418 287.3 4.2 276 18.2
2007-11-12 10:18:01 51°15.058 2°44.408 286.9 4.5 269 18.2
2007-11-12 10:18:06 51°15.058 2°44.398 286.1 4.5 272 18.3
2007-11-12 10:18:11 51°15.058 2°44.388 287.6 4.4 271 18.5
2007-11-12 10:18:16 51°15.059 2°44.378 289.6 4.5 270 18.4
2007-11-12 10:18:21 51°15.059 2°44.368 288.3 4.6 278 18.8
2007-11-12 10:18:26 51°15.059 2°44.357 288.7 5 265 18.7
2007-11-12 10:18:31 51°15.061 2°44.347 287.9 4.6 281 19
2007-11-12 10:18:36 51°15.06 2°44.336 287.3 4.8 269 19.3
2007-11-12 10:18:41 51°15.061 2°44.326 286.1 4.6 275 19.4
2007-11-12 10:18:46 51°15.061 2°44.315 285 4.9 270 19.4
2007-11-12 10:18:51 51°15.061 2°44.305 284.8 4.7 275 19.4
2007-11-12 10:18:56 51°15.061 2°44.294 285.1 4.9 273 19.2
2007-11-12 10:19:01 51°15.061 2°44.282 284.5 5 269 19
2007-11-12 10:19:06 51°15.061 2°44.271 282.9 5.1 267 19
2007-11-12 10:19:11 51°15.062 2°44.26 282.9 4.9 274 18.7
2007-11-12 10:19:16 51°15.061 2°44.249 281.1 4.9 270 19
2007-11-12 10:19:21 51°15.06 2°44.238 280.4 5.2 261 19
2007-11-12 10:19:26 51°15.061 2°44.227 279.7 4.7 273 18.9
2007-11-12 10:19:31 51°15.059 2°44.216 277.7 5.1 259 19
2007-11-12 10:19:36 51°15.059 2°44.205 277.7 4.9 271 18.9
2007-11-12 10:19:41 51°15.057 2°44.194 276.1 5.2 261 19.3
2007-11-12 10:19:46 51°15.058 2°44.183 277.7 5.1 267 19.1
2007-11-12 10:19:51 51°15.057 2°44.171 275.8 5.1 267 19.1
2007-11-12 10:19:56 51°15.056 2°44.16 276.3 5.2 262 19.2
2007-11-12 10:20:01 51°15.055 2°44.148 276.1 5.3 263 19.2
2007-11-12 10:20:06 51°15.055 2°44.137 275.8 5.1 268 19.2
2007-11-12 10:20:11 51°15.054 2°44.126 275.8 5.2 262 18.9
2007-11-12 10:20:16 51°15.053 2°44.114 274.9 5 265 18.7
2007-11-12 10:20:21 51°15.052 2°44.103 274.5 5.1 261 -999
2007-11-12 10:20:26 51°15.051 2°44.091 274.1 5.4 262 19
2007-11-12 10:20:31 51°15.05 2°44.08 273.6 5.1 264 18.9
2007-11-12 10:20:36 51°15.048 2°44.069 273.6 5.2 258 18.8
2007-11-12 10:20:41 51°15.048 2°44.058 273.6 5 266 18.6
2007-11-12 10:20:46 51°15.046 2°44.047 272.6 5.1 260 18.9
2007-11-12 10:20:51 51°15.045 2°44.036 273.6 5.1 258 19
2007-11-12 10:20:56 51°15.044 2°44.025 272.4 5.1 261 19
2007-11-12 10:21:01 51°15.043 2°44.013 273.3 5.3 261 19
2007-11-12 10:21:06 51°15.042 2°44.002 272.9 5.2 265 19.2
2007-11-12 10:21:11 51°15.041 2°43.99 273.6 5.5 256 19.2
2007-11-12 10:21:16 51°15.041 2°43.979 273.5 5.1 273 19
2007-11-12 10:21:21 51°15.038 2°43.968 273.2 5.6 250 19
2007-11-12 10:21:26 51°15.039 2°43.957 272.7 5.1 266 18.7
2007-11-12 10:21:31 51°15.037 2°43.946 273.4 5.1 259 18.6
2007-11-12 10:21:36 51°15.037 2°43.935 275 4.9 270 18.4
2007-11-12 10:21:41 51°15.035 2°43.924 274.8 5.1 262 18.6
2007-11-12 10:21:46 51°15.035 2°43.913 275.1 5.2 264 18.9
2007-11-12 10:21:51 51°15.034 2°43.901 276.2 5.1 265 19
2007-11-12 10:21:56 51°15.033 2°43.89 275 5.1 264 19.2
2007-11-12 10:22:01 51°15.032 2°43.879 273.2 5.2 259 19.1
2007-11-12 10:22:06 51°15.032 2°43.868 271.5 5.1 269 19.2
2007-11-12 10:22:11 51°15.029 2°43.857 271.7 5.5 249 19.1
2007-11-12 10:22:16 51°15.029 2°43.846 269.4 5 266 18.6
2007-11-12 10:22:21 51°15.026 2°43.835 266.5 5.1 251 18.3
2007-11-12 10:22:26 51°15.025 2°43.824 264.4 4.9 259 18.1
2007-11-12 10:22:31 51°15.021 2°43.814 262.4 5.1 248 17.7
2007-11-12 10:22:36 51°15.02 2°43.803 260.5 5 254 17.9
2007-11-12 10:22:41 51°15.017 2°43.792 260.5 5.1 249 18.1
2007-11-12 10:22:46 51°15.015 2°43.781 259.7 5.2 252 18.4
2007-11-12 10:22:51 51°15.012 2°43.771 258.6 5.1 252 18.7
2007-11-12 10:22:56 51°15.009 2°43.76 257.6 5.5 245 19
2007-11-12 10:23:01 51°15.007 2°43.749 257.9 5.2 255 19.1
2007-11-12 10:23:05 51°15.004 2°43.74 256.9 5.6 239 18.9
2007-11-12 10:23:11 51°15.002 2°43.726 257.5 5.3 259 18.6
2007-11-12 10:23:16 51°14.997 2°43.716 255 5.7 239 18.9
2007-11-12 10:23:21 51°14.995 2°43.705 255.9 5.4 247 18.5
2007-11-12 10:23:26 51°14.992 2°43.694 254.5 5.5 246 18.3
2007-11-12 10:23:31 51°14.989 2°43.683 253.9 5.4 248 18.6
2007-11-12 10:23:36 51°14.986 2°43.672 253.7 5.6 244 18.6
2007-11-12 10:23:41 51°14.983 2°43.661 253.6 5.5 246 18.5
2007-11-12 10:23:46 51°14.979 2°43.65 253.3 5.6 242 18.7
2007-11-12 10:23:51 51°14.976 2°43.638 252.8 5.6 245 18.6
2007-11-12 10:23:56 51°14.973 2°43.628 253.3 5.3 247 18.4
2007-11-12 10:24:01 51°14.97 2°43.617 253.7 5.5 246 18.3
2007-11-12 10:24:06 51°14.967 2°43.605 254.7 5.4 248 18.3
2007-11-12 10:24:11 51°14.964 2°43.595 254.6 5.4 247 18.3
2007-11-12 10:24:16 51°14.961 2°43.584 255.8 5.3 246 18.2
2007-11-12 10:24:21 51°14.958 2°43.573 256.3 5.2 248 18
2007-11-12 10:24:26 51°14.955 2°43.562 256.8 5.3 250 18.1
2007-11-12 10:24:31 51°14.952 2°43.551 257.6 5.2 247 18.2
2007-11-12 10:24:36 51°14.95 2°43.54 257.6 5.3 248 18.4
2007-11-12 10:24:41 51°14.947 2°43.529 258 5.4 249 18.3
2007-11-12 10:24:46 51°14.944 2°43.518 257.3 5.3 248 18.1
2007-11-12 10:24:51 51°14.941 2°43.508 255.7 5.2 244 17.8
2007-11-12 10:24:56 51°14.938 2°43.497 255.2 5.1 245 17.8
2007-11-12 10:25:01 51°14.935 2°43.487 254.4 5.2 243 17.9
2007-11-12 10:25:06 51°14.932 2°43.477 252.5 5.2 248 18.1
2007-11-12 10:25:11 51°14.927 2°43.467 251 5.5 233 17.8
2007-11-12 10:25:16 51°14.925 2°43.456 250.8 5.3 248 17.9
2007-11-12 10:25:21 51°14.92 2°43.447 249.1 5.4 236 18
2007-11-12 10:25:26 51°14.916 2°43.436 248.7 5.4 239 18
2007-11-12 10:25:31 51°14.913 2°43.426 248.9 5.3 238 18
2007-11-12 10:25:36 51°14.909 2°43.416 248.1 5.3 239 18.1
2007-11-12 10:25:41 51°14.905 2°43.406 248.1 5.3 242 18.2
2007-11-12 10:25:46 51°14.901 2°43.396 248.8 5.4 235 18.4
2007-11-12 10:25:51 51°14.898 2°43.385 248.8 5.5 242 18.3
2007-11-12 10:25:56 51°14.894 2°43.374 248.1 5.5 243 18.5
2007-11-12 10:26:01 51°14.89 2°43.364 249 5.6 235 18.7
2007-11-12 10:26:06 51°14.887 2°43.353 249.2 5.4 243 18.4
2007-11-12 10:26:11 51°14.883 2°43.343 249.1 5.3 242 18.5
2007-11-12 10:26:16 51°14.879 2°43.333 248.7 5.4 238 18.2
2007-11-12 10:26:21 51°14.876 2°43.322 248.9 5.3 244 18.2
2007-11-12 10:26:26 51°14.871 2°43.313 248.2 5.4 238 18.4
2007-11-12 10:26:31 51°14.868 2°43.302 249.3 5.4 237 18.4
2007-11-12 10:26:36 51°14.865 2°43.291 249.6 5.5 246 18.2
2007-11-12 10:26:41 51°14.86 2°43.281 249.6 5.5 239 18.4
2007-11-12 10:26:46 51°14.856 2°43.271 249.7 5.5 236 18.3
2007-11-12 10:26:51 51°14.853 2°43.26 249.2 5.2 246 18
2007-11-12 10:26:56 51°14.849 2°43.25 248.9 5.5 236 18.1
2007-11-12 10:27:01 51°14.846 2°43.24 248.8 5.4 240 18.3
2007-11-12 10:27:06 51°14.842 2°43.229 249.9 5.4 247 18.3
2007-11-12 10:27:11 51°14.837 2°43.219 250.6 5.7 231 18.3
2007-11-12 10:27:16 51°14.834 2°43.209 249.9 5.5 235 18
2007-11-12 10:27:21 51°14.831 2°43.199 248.7 5.3 243 4.4
2007-11-12 10:27:26 51°14.826 2°43.189 249.1 5.4 242 17.7
2007-11-12 10:27:31 51°14.822 2°43.179 250.4 5.4 235 18.2
2007-11-12 10:27:36 51°14.819 2°43.169 250.2 5.2 243 18.2
2007-11-12 10:27:41 51°14.815 2°43.16 249.2 5.3 234 18.2
2007-11-12 10:27:46 51°14.812 2°43.15 248.9 5.2 238 18.1
2007-11-12 10:27:51 51°14.808 2°43.14 248.9 5.1 243 18.3
2007-11-12 10:27:56 51°14.804 2°43.13 250.4 5.3 237 18.4
2007-11-12 10:28:01 51°14.801 2°43.12 248.9 5.2 243 18.6
2007-11-12 10:28:06 51°14.797 2°43.11 249.8 5.3 239 18.6
2007-11-12 10:28:11 51°14.794 2°43.099 250 5.4 242 18.7
2007-11-12 10:28:16 51°14.79 2°43.089 249.9 5.3 237 18.8
2007-11-12 10:28:21 51°14.787 2°43.079 249.6 5.4 244 18.4
2007-11-12 10:28:26 51°14.783 2°43.069 251.7 5.3 238 18.2
2007-11-12 10:28:31 51°14.78 2°43.058 250.3 5.4 244 18
2007-11-12 10:28:36 51°14.776 2°43.048 250.2 5.4 239 18
2007-11-12 10:28:41 51°14.772 2°43.037 249.6 5.5 242 18
2007-11-12 10:28:46 51°14.769 2°43.027 249.6 5.4 240 17.9
2007-11-12 10:28:51 51°14.765 2°43.016 250 5.4 243 18
2007-11-12 10:28:56 51°14.761 2°43.006 250 5.5 238 17.9
2007-11-12 10:29:01 51°14.758 2°42.995 249.4 5.4 248 17.8
2007-11-12 10:29:06 51°14.754 2°42.985 250.5 5.5 236 17.7
2007-11-12 10:29:11 51°14.751 2°42.974 249.4 5.4 245 17.6
2007-11-12 10:29:16 51°14.747 2°42.963 250.4 5.5 241 17.6
2007-11-12 10:29:21 51°14.743 2°42.953 250.4 5.5 242 17.9
2007-11-12 10:29:26 51°14.74 2°42.942 251.6 5.5 242 17.6
2007-11-12 10:29:31 51°14.736 2°42.931 251.2 5.4 246 17.3
2007-11-12 10:29:36 51°14.733 2°42.921 251 5.4 242 17.3
2007-11-12 10:29:41 51°14.729 2°42.91 249.9 5.3 241 17.5
2007-11-12 10:29:45 51°14.727 2°42.901 250.7 5.4 243 17.4